KBKF

Buckley AFB Airport

Aurora, Colorado, USA
METAR KBKF 150046Z 15007KT 10SM -TSRA BKN070 OVC150 23/11 A3013 RMK AO2A PRESRR
Observed Flight Rules
Aug-15 @ 00:46 UTC (18 minutes ago) Visual Flight Rules
Wind Visibility Clouds Conditions
150° at 7 knots 10 miles
  • Broken at 7,000' AGL
  • Overcast at 15,000' AGL
  • Light Thunderstorm
  • Light Rain
Temperatures Readings
Current 23°C / 73°F
Dewpoint 11°C / 52°F
Humidity 47%
Altimeter 30.13" Hg
Pressure 1020 hPa
Elevation 1726
METAR KBKF 150046Z 15007KT 10SM -TSRA BKN070 OVC150 23/11 A3013 RMK AO2A PRESRR
Observed Flight Rules
Aug-15 @ 00:46 UTC
(18 minutes ago)
VFR
Wind Visibility
150° at 7 knots 10 miles
Clouds
  • Broken at 7,000' AGL
  • Overcast at 15,000' AGL
Conditions
  • Light Thunderstorm
  • Light Rain
Temperature Dewpoint
23°C / 73°F 11°C / 52°F
Humidity Altimeter Pressure
47% 30.13" Hg 1020 hPa